Time;durP1;ratioP1;P1;durP2;ratioP2;P2;SDS_P1;SDS_P2;PMS_P1;PMS_P2;Temp;Humidity;BMP_temperature;BMP_pressure;BME280_temperature;BME280_humidity;BME280_pressure;Samples;Min_cycle;Max_cycle;Signal;HPM_P1;HPM_P2
2022/02/18 00:00:45;;;;;;;7.30;1.53;;;4.70;82.90;;;;;;4407121;28;656020;-75
2022/02/18 00:03:32;;;;;;;4.30;1.80;;;4.70;83.90;;;;;;4382690;28;656739;-74
2022/02/18 00:06:20;;;;;;;6.00;1.60;;;4.70;78.30;;;;;;4393197;28;656328;-75
2022/02/18 00:09:08;;;;;;;5.90;1.23;;;4.80;77.00;;;;;;4379537;28;656242;-75
2022/02/18 00:11:56;;;;;;;6.57;1.17;;;4.80;74.60;;;;;;4384885;28;655464;-75
2022/02/18 00:14:43;;;;;;;5.03;1.33;;;4.90;72.30;;;;;;4400847;28;656449;-75
2022/02/18 00:17:31;;;;;;;3.70;0.80;;;5.00;71.10;;;;;;4373776;28;655885;-74
2022/02/18 00:20:18;;;;;;;8.90;1.60;;;5.00;69.50;;;;;;4392468;28;656548;-74
2022/02/18 00:23:07;;;;;;;5.90;0.97;;;5.00;70.00;;;;;;4390549;28;655396;-74
2022/02/18 00:25:56;;;;;;;3.80;1.17;;;5.10;66.80;;;;;;4399121;28;655686;-75
2022/02/18 00:28:45;;;;;;;7.67;0.70;;;5.00;67.60;;;;;;4361108;28;656677;-75
2022/02/18 00:31:33;;;;;;;3.63;1.00;;;4.90;66.90;;;;;;4384033;28;656708;-75
2022/02/18 00:34:21;;;;;;;8.20;1.10;;;4.90;64.90;;;;;;4392361;28;655816;-73
2022/02/18 00:37:08;;;;;;;6.23;1.00;;;5.00;65.10;;;;;;4400042;28;655515;-75
2022/02/18 00:39:56;;;;;;;4.40;0.98;;;4.90;65.50;;;;;;4389470;28;655612;-73
2022/02/18 00:42:45;;;;;;;5.78;1.13;;;4.90;65.10;;;;;;4400420;28;656898;-75
2022/02/18 00:45:33;;;;;;;4.47;1.10;;;4.90;65.20;;;;;;4387617;28;655302;-75
2022/02/18 00:48:20;;;;;;;5.23;1.10;;;4.80;65.40;;;;;;4395006;28;655718;-73
2022/02/18 00:51:08;;;;;;;3.47;1.23;;;4.80;66.50;;;;;;4397792;28;656718;-75
2022/02/18 00:53:56;;;;;;;7.63;1.20;;;4.80;66.80;;;;;;4364125;28;656450;-73
2022/02/18 00:56:44;;;;;;;5.10;1.20;;;4.80;68.30;;;;;;4406014;28;656406;-75
2022/02/18 00:59:33;;;;;;;3.53;1.03;;;4.80;68.80;;;;;;4385060;28;655977;-75
2022/02/18 01:02:20;;;;;;;8.17;1.20;;;4.70;69.90;;;;;;4383260;28;655350;-75
2022/02/18 01:05:09;;;;;;;4.10;1.00;;;4.70;70.90;;;;;;4402165;28;656609;-75
2022/02/18 01:07:56;;;;;;;6.97;1.10;;;4.80;71.00;;;;;;4384532;28;655737;-74
2022/02/18 01:10:44;;;;;;;4.17;0.97;;;4.80;71.00;;;;;;4402109;28;656570;-74
2022/02/18 01:13:31;;;;;;;4.67;1.20;;;4.80;71.50;;;;;;4365334;28;655466;-75
2022/02/18 01:16:20;;;;;;;3.83;0.90;;;4.80;70.80;;;;;;4397657;28;655794;-74
2022/02/18 01:19:08;;;;;;;3.97;1.07;;;4.80;71.70;;;;;;4379714;28;656027;-74
2022/02/18 01:21:55;;;;;;;7.18;1.25;;;4.80;71.30;;;;;;4385840;28;655727;-73
2022/02/18 01:24:43;;;;;;;5.00;1.10;;;4.90;70.50;;;;;;4400083;28;656896;-75
2022/02/18 01:27:30;;;;;;;5.50;1.23;;;4.90;69.90;;;;;;4382776;28;655986;-73
2022/02/18 01:30:18;;;;;;;6.23;1.00;;;4.90;69.40;;;;;;4392065;28;656495;-75
2022/02/18 01:33:07;;;;;;;5.30;1.10;;;4.90;69.10;;;;;;4366211;28;655488;-73
2022/02/18 01:35:54;;;;;;;6.23;1.20;;;4.90;68.60;;;;;;4400044;28;656064;-74
2022/02/18 01:38:42;;;;;;;6.67;1.17;;;4.80;69.40;;;;;;4381806;28;655460;-74
2022/02/18 01:41:30;;;;;;;3.95;0.98;;;4.70;70.10;;;;;;4399800;28;656044;-75
2022/02/18 01:44:32;;;;;;;4.53;1.00;;;4.70;67.80;;;;;;4384770;28;656164;-74
2022/02/18 01:47:21;;;;;;;8.20;1.40;;;4.70;67.80;;;;;;4379504;28;655952;-74
2022/02/18 01:50:10;;;;;;;4.77;1.13;;;4.70;68.20;;;;;;4370759;28;656171;-75
2022/02/18 01:52:58;;;;;;;8.03;1.00;;;4.70;67.90;;;;;;4369969;28;656438;-74
2022/02/18 01:55:46;;;;;;;3.83;1.10;;;4.60;68.10;;;;;;4381117;28;655388;-74
2022/02/18 01:58:34;;;;;;;4.10;1.20;;;4.50;67.60;;;;;;4400924;28;655740;-75
2022/02/18 02:01:21;;;;;;;4.47;1.00;;;4.50;67.60;;;;;;4375313;28;655517;-74
2022/02/18 02:04:10;;;;;;;3.67;0.83;;;4.50;66.60;;;;;;4406508;28;655817;-76
2022/02/18 02:07:00;;;;;;;6.13;1.10;;;4.50;66.90;;;;;;4368124;28;656267;-74
2022/02/18 02:09:48;;;;;;;4.43;0.90;;;4.40;67.20;;;;;;4364382;28;656570;-75
2022/02/18 02:12:39;;;;;;;3.67;0.80;;;4.30;67.20;;;;;;4377507;28;656588;-73
2022/02/18 02:15:28;;;;;;;4.53;1.00;;;4.20;67.70;;;;;;4388320;28;656112;-75
2022/02/18 02:18:15;;;;;;;3.43;1.00;;;4.10;67.90;;;;;;4391642;28;656129;-74
2022/02/18 02:21:04;;;;;;;4.23;1.03;;;4.10;68.50;;;;;;4399134;28;656152;-74
2022/02/18 02:23:53;;;;;;;4.13;0.70;;;4.10;68.90;;;;;;4386971;28;655533;-74
2022/02/18 02:26:41;;;;;;;7.67;1.30;;;4.10;68.20;;;;;;4373900;28;656053;-74
2022/02/18 02:29:28;;;;;;;5.87;1.00;;;4.10;68.20;;;;;;4383303;28;655095;-74
2022/02/18 02:32:16;;;;;;;3.87;0.80;;;4.10;68.60;;;;;;4363434;28;655429;-73
2022/02/18 02:35:04;;;;;;;2.67;0.80;;;4.10;68.50;;;;;;4401597;28;655207;-75
2022/02/18 02:37:51;;;;;;;5.83;0.80;;;4.10;69.30;;;;;;4366909;28;655796;-75
2022/02/18 02:40:40;;;;;;;5.67;0.90;;;4.20;68.30;;;;;;4392417;28;657854;-74
2022/02/18 02:43:28;;;;;;;4.57;0.50;;;4.20;67.50;;;;;;4367250;28;655923;-75
2022/02/18 02:46:16;;;;;;;6.10;1.10;;;4.30;67.40;;;;;;4382047;28;655469;-73
2022/02/18 02:49:03;;;;;;;1.67;0.50;;;4.20;67.60;;;;;;4394441;28;656762;-75
2022/02/18 02:51:51;;;;;;;5.37;1.73;;;4.10;67.20;;;;;;4382499;28;655262;-74
2022/02/18 02:54:38;;;;;;;3.97;0.90;;;4.20;67.00;;;;;;4399579;28;655817;-75
2022/02/18 02:57:27;;;;;;;6.40;1.50;;;4.20;66.40;;;;;;4386410;28;657094;-75
2022/02/18 03:00:16;;;;;;;2.67;1.00;;;4.20;65.70;;;;;;4406560;28;655730;-75
2022/02/18 03:03:04;;;;;;;3.63;0.80;;;4.20;66.60;;;;;;4398445;28;656546;-75
2022/02/18 03:05:51;;;;;;;2.53;0.80;;;4.20;66.00;;;;;;4378202;28;655718;-75
2022/02/18 03:08:39;;;;;;;6.70;1.77;;;4.30;64.90;;;;;;4398025;28;656285;-75
2022/02/18 03:11:26;;;;;;;4.13;0.90;;;4.20;64.60;;;;;;4380023;28;655619;-74
2022/02/18 03:14:15;;;;;;;2.67;1.10;;;4.20;65.30;;;;;;4399667;28;657148;-73
2022/02/18 03:17:03;;;;;;;4.95;1.20;;;4.20;65.60;;;;;;4378915;28;655254;-74
2022/02/18 03:19:51;;;;;;;4.32;1.00;;;4.10;65.90;;;;;;4381286;28;656501;-74
2022/02/18 03:22:38;;;;;;;9.20;1.47;;;4.10;66.10;;;;;;4397219;28;655997;-75
2022/02/18 03:25:26;;;;;;;3.13;0.70;;;4.10;66.50;;;;;;4383747;28;655697;-75
2022/02/18 03:28:14;;;;;;;3.30;0.70;;;4.10;66.70;;;;;;4402874;28;656638;-76
2022/02/18 03:31:03;;;;;;;11.07;1.33;;;4.20;66.50;;;;;;4384312;28;655627;-75
2022/02/18 03:33:51;;;;;;;1.60;0.93;;;4.20;66.50;;;;;;4383022;28;657063;-73
2022/02/18 03:36:38;;;;;;;6.67;1.07;;;4.20;66.10;;;;;;4404096;28;656067;-75
2022/02/18 03:39:26;;;;;;;10.65;1.15;;;4.20;67.00;;;;;;4384868;28;656379;-74
2022/02/18 03:42:13;;;;;;;3.50;0.63;;;4.10;66.30;;;;;;4403856;28;657125;-75
2022/02/18 03:45:01;;;;;;;3.47;0.95;;;4.10;66.40;;;;;;4382397;28;655403;-73
2022/02/18 03:47:49;;;;;;;5.07;1.20;;;4.10;66.20;;;;;;4407230;28;656536;-75
2022/02/18 03:50:37;;;;;;;9.20;1.03;;;4.10;66.30;;;;;;4387137;28;656500;-75
2022/02/18 03:53:25;;;;;;;3.50;0.68;;;4.10;66.80;;;;;;4398883;28;655602;-75
2022/02/18 03:56:13;;;;;;;3.03;0.93;;;4.00;66.60;;;;;;4382387;28;656767;-74
2022/02/18 03:59:01;;;;;;;6.53;1.37;;;3.90;67.00;;;;;;4386433;28;655874;-74
2022/02/18 04:01:48;;;;;;;3.20;1.10;;;4.00;66.40;;;;;;4406572;28;656598;-75
2022/02/18 04:04:37;;;;;;;4.83;0.73;;;4.00;67.10;;;;;;4380657;28;655554;-75
2022/02/18 04:07:25;;;;;;;4.03;0.97;;;3.90;67.30;;;;;;4401008;28;656505;-75
2022/02/18 04:10:12;;;;;;;7.80;1.27;;;4.00;67.30;;;;;;4376522;28;656099;-75
2022/02/18 04:13:00;;;;;;;4.77;0.80;;;3.90;67.40;;;;;;4403319;28;656081;-75
2022/02/18 04:15:49;;;;;;;6.73;1.43;;;3.90;67.80;;;;;;4379258;28;656688;-76
2022/02/18 04:18:36;;;;;;;5.90;1.17;;;3.90;67.60;;;;;;4384288;28;656119;-75
2022/02/18 04:21:25;;;;;;;6.93;1.43;;;3.90;67.80;;;;;;4406228;28;656963;-75
2022/02/18 04:24:13;;;;;;;4.50;1.43;;;3.90;68.20;;;;;;4383357;28;656411;-75
2022/02/18 04:27:01;;;;;;;5.53;1.47;;;3.80;68.40;;;;;;4386297;28;655605;-74
2022/02/18 04:29:48;;;;;;;3.63;1.10;;;3.80;68.40;;;;;;4405669;28;655980;-75
2022/02/18 04:32:36;;;;;;;9.87;1.23;;;3.80;68.60;;;;;;4391380;28;655953;-72
2022/02/18 04:35:23;;;;;;;5.13;1.17;;;3.80;68.20;;;;;;4405486;28;656247;-75
2022/02/18 04:38:12;;;;;;;6.90;1.53;;;3.90;68.70;;;;;;4389542;28;655642;-74
2022/02/18 04:41:00;;;;;;;6.73;1.13;;;3.80;68.70;;;;;;4406379;28;655934;-74
2022/02/18 04:43:47;;;;;;;3.13;1.10;;;3.80;69.30;;;;;;4388384;28;656542;-75
2022/02/18 04:46:35;;;;;;;4.67;1.10;;;3.80;69.40;;;;;;4408417;28;655467;-73
2022/02/18 04:49:23;;;;;;;4.03;1.13;;;3.70;69.70;;;;;;4403498;28;657088;-74
2022/02/18 04:52:10;;;;;;;7.50;2.00;;;3.60;69.80;;;;;;4387006;28;655791;-73
2022/02/18 04:55:00;;;;;;;7.03;0.90;;;3.60;69.60;;;;;;4407018;28;657353;-74
2022/02/18 04:57:47;;;;;;;6.03;1.93;;;3.50;70.10;;;;;;4378945;28;656887;-75
2022/02/18 05:00:36;;;;;;;5.50;1.90;;;3.50;70.40;;;;;;4404938;28;655473;-73
2022/02/18 05:03:23;;;;;;;4.77;1.50;;;3.40;70.60;;;;;;4404777;28;656855;-75
2022/02/18 05:06:11;;;;;;;8.57;1.60;;;3.40;71.40;;;;;;4384838;28;655449;-74
2022/02/18 05:08:58;;;;;;;5.57;1.90;;;3.30;72.10;;;;;;4406048;28;656655;-75
2022/02/18 05:11:47;;;;;;;10.10;1.70;;;3.10;73.00;;;;;;4385296;28;655474;-74
2022/02/18 05:14:35;;;;;;;11.40;1.90;;;3.10;73.30;;;;;;4403928;28;656863;-75
2022/02/18 05:17:22;;;;;;;5.23;1.50;;;3.00;74.10;;;;;;4376097;28;657903;-75
2022/02/18 05:20:11;;;;;;;5.67;1.53;;;2.90;75.60;;;;;;4399347;28;655189;-73
2022/02/18 05:22:59;;;;;;;6.30;2.07;;;2.90;75.70;;;;;;4410817;28;656011;-75
2022/02/18 05:25:46;;;;;;;7.00;2.43;;;2.80;77.00;;;;;;4378191;28;655526;-74
2022/02/18 05:28:35;;;;;;;11.20;2.43;;;2.80;76.60;;;;;;4400972;28;656208;-75
2022/02/18 05:31:23;;;;;;;5.43;1.77;;;2.60;77.50;;;;;;4377154;28;657806;-75
2022/02/18 05:34:11;;;;;;;6.90;2.25;;;2.70;78.70;;;;;;4380957;28;655886;-72
2022/02/18 05:36:59;;;;;;;7.10;2.40;;;2.60;79.20;;;;;;4409772;28;656874;-75
2022/02/18 05:39:47;;;;;;;8.43;2.40;;;2.50;80.00;;;;;;4388034;28;655585;-75
2022/02/18 05:42:34;;;;;;;11.23;3.20;;;2.50;80.00;;;;;;4401967;28;655896;-75
2022/02/18 05:45:24;;;;;;;11.00;3.23;;;2.40;81.60;;;;;;4374978;28;656941;-75
2022/02/18 05:48:11;;;;;;;8.33;2.47;;;2.30;83.40;;;;;;4379703;28;656202;-75
2022/02/18 05:50:59;;;;;;;7.07;2.63;;;2.30;84.00;;;;;;4397806;28;657363;-73
2022/02/18 05:53:47;;;;;;;13.13;2.60;;;2.30;84.60;;;;;;4376266;28;655466;-75
2022/02/18 05:56:34;;;;;;;10.00;2.63;;;2.20;85.40;;;;;;4398291;28;656779;-74
2022/02/18 05:59:22;;;;;;;9.80;2.80;;;2.20;86.00;;;;;;4373201;28;656521;-75
2022/02/18 06:02:11;;;;;;;12.47;3.20;;;2.20;87.10;;;;;;4407998;28;655211;-75
2022/02/18 06:05:01;;;;;;;8.53;2.73;;;2.30;86.10;;;;;;4373100;28;656705;-74
2022/02/18 06:07:48;;;;;;;10.33;3.20;;;2.30;86.20;;;;;;4375535;28;656891;-75
2022/02/18 06:10:37;;;;;;;11.03;2.90;;;2.30;86.30;;;;;;4386329;28;657547;-74
2022/02/18 06:13:24;;;;;;;20.13;4.10;;;2.30;86.70;;;;;;4402742;28;656701;-75
2022/02/18 06:16:12;;;;;;;11.30;3.40;;;2.30;87.00;;;;;;4384186;28;656799;-74
2022/02/18 06:19:03;;;;;;;14.63;3.50;;;2.30;87.00;;;;;;4398247;28;656690;-72
2022/02/18 06:21:51;;;;;;;15.03;3.70;;;2.40;85.90;;;;;;4349047;28;656541;-73
2022/02/18 06:24:38;;;;;;;14.13;3.87;;;2.40;85.60;;;;;;4385679;28;657774;-76
2022/02/18 06:27:26;;;;;;;8.80;2.57;;;2.40;85.70;;;;;;4383698;28;656631;-75
2022/02/18 06:30:14;;;;;;;10.48;3.40;;;2.40;85.50;;;;;;4401991;28;656039;-75
2022/02/18 06:33:02;;;;;;;15.60;3.87;;;2.50;84.90;;;;;;4385854;28;656943;-74
2022/02/18 06:35:51;;;;;;;12.97;3.77;;;2.50;84.90;;;;;;4403600;28;656868;-74
2022/02/18 06:38:40;;;;;;;16.90;3.53;;;2.50;85.20;;;;;;4377282;28;657012;-75
2022/02/18 06:41:27;;;;;;;17.07;4.07;;;2.50;85.10;;;;;;4375758;28;657395;-75
2022/02/18 06:44:15;;;;;;;11.63;3.70;;;2.60;84.10;;;;;;4399614;28;656864;-75
2022/02/18 06:47:03;;;;;;;11.10;3.60;;;2.70;83.20;;;;;;4382734;28;658062;-75
2022/02/18 06:49:51;;;;;;;7.10;2.70;;;2.80;82.00;;;;;;4376528;28;656601;-74
2022/02/18 06:52:40;;;;;;;12.00;3.50;;;2.90;81.20;;;;;;4398006;28;655857;-75
2022/02/18 06:55:27;;;;;;;14.30;3.93;;;2.90;81.20;;;;;;4379737;28;657491;-75
2022/02/18 06:58:15;;;;;;;13.83;4.20;;;3.00;80.80;;;;;;4391628;28;657434;-74
2022/02/18 07:01:03;;;;;;;13.37;4.33;;;3.10;80.10;;;;;;4406132;28;657955;-75
2022/02/18 07:03:51;;;;;;;9.80;2.93;;;3.10;79.20;;;;;;4374872;28;656969;-74
2022/02/18 07:06:38;;;;;;;11.67;3.77;;;3.20;78.90;;;;;;4406237;28;656347;-74
2022/02/18 07:09:28;;;;;;;14.40;3.80;;;3.30;77.50;;;;;;4387512;28;656398;-74
2022/02/18 07:12:16;;;;;;;13.40;4.13;;;3.30;77.30;;;;;;4388751;28;656578;-73
2022/02/18 07:15:03;;;;;;;13.40;4.00;;;3.40;76.80;;;;;;4406164;28;657439;-75
2022/02/18 07:17:51;;;;;;;8.07;3.23;;;3.50;76.50;;;;;;4380964;28;656971;-74
2022/02/18 07:20:39;;;;;;;11.93;4.13;;;3.60;76.00;;;;;;4401189;28;656834;-75
2022/02/18 07:23:27;;;;;;;14.37;4.27;;;3.60;75.90;;;;;;4383954;28;657610;-74
2022/02/18 07:26:16;;;;;;;12.60;3.40;;;3.70;75.10;;;;;;4402859;28;656354;-74
2022/02/18 07:29:04;;;;;;;7.13;2.80;;;3.80;75.00;;;;;;4380414;28;657190;-74
2022/02/18 07:31:51;;;;;;;11.50;3.10;;;3.90;74.50;;;;;;4380123;28;655217;-74
2022/02/18 07:34:39;;;;;;;11.67;2.60;;;4.00;72.60;;;;;;4401074;28;657302;-75
2022/02/18 07:37:26;;;;;;;12.57;2.67;;;4.10;72.70;;;;;;4389583;28;657256;-75
2022/02/18 07:40:14;;;;;;;9.73;2.40;;;4.20;71.10;;;;;;4400512;28;657123;-75
2022/02/18 07:43:03;;;;;;;7.55;2.05;;;4.40;71.30;;;;;;4380095;28;655631;-75
2022/02/18 07:45:53;;;;;;;6.30;1.83;;;4.40;69.80;;;;;;4377502;28;656449;-74
2022/02/18 07:48:41;;;;;;;14.03;2.90;;;4.60;69.50;;;;;;4379206;28;655939;-75
2022/02/18 07:51:29;;;;;;;10.73;2.53;;;4.80;69.10;;;;;;4382423;28;657501;-75
2022/02/18 07:54:16;;;;;;;9.23;1.90;;;4.90;67.90;;;;;;4356900;28;656385;-74
2022/02/18 07:57:05;;;;;;;7.20;1.90;;;5.00;66.80;;;;;;4383792;28;655406;-75
2022/02/18 07:59:54;;;;;;;12.07;2.23;;;5.10;65.10;;;;;;4360740;28;656336;-75
2022/02/18 08:02:42;;;;;;;8.30;1.80;;;5.30;65.10;;;;;;4363730;28;656651;-75
2022/02/18 08:05:29;;;;;;;7.90;1.57;;;5.20;64.40;;;;;;4375165;28;655321;-75
2022/02/18 08:08:20;;;;;;;3.53;1.37;;;5.30;63.30;;;;;;4348789;28;655776;-74
2022/02/18 08:11:08;;;;;;;9.80;1.60;;;5.40;62.00;;;;;;4364075;28;655678;-75
2022/02/18 08:13:58;;;;;;;7.33;1.70;;;5.50;61.90;;;;;;4362508;28;656083;-74
2022/02/18 08:16:47;;;;;;;7.67;1.87;;;5.60;62.00;;;;;;4372884;28;655694;-73
2022/02/18 08:19:35;;;;;;;5.70;1.87;;;5.70;61.00;;;;;;4401809;28;654976;-75
2022/02/18 08:22:27;;;;;;;6.77;1.63;;;5.90;60.80;;;;;;4375051;28;655340;-76
2022/02/18 08:25:14;;;;;;;7.63;1.97;;;6.00;59.70;;;;;;4363997;28;655946;-75
2022/02/18 08:28:02;;;;;;;9.80;1.87;;;6.00;59.60;;;;;;4365940;28;655445;-75
2022/02/18 08:30:50;;;;;;;10.40;2.20;;;6.20;60.00;;;;;;4389283;28;655126;-75
2022/02/18 08:33:39;;;;;;;12.33;2.23;;;6.40;59.70;;;;;;4367222;28;657699;-74
2022/02/18 08:36:27;;;;;;;8.93;1.80;;;6.60;59.40;;;;;;4369937;28;657272;-74
2022/02/18 08:39:14;;;;;;;9.47;1.90;;;6.70;58.50;;;;;;4392586;28;655411;-75
2022/02/18 08:42:02;;;;;;;6.20;1.73;;;6.80;57.50;;;;;;4374687;28;655482;-74
2022/02/18 08:44:51;;;;;;;9.73;1.83;;;6.80;56.90;;;;;;4399317;28;655707;-73
2022/02/18 08:47:38;;;;;;;7.30;2.00;;;7.00;57.60;;;;;;4395739;28;655662;-74
2022/02/18 08:50:27;;;;;;;15.07;1.83;;;7.00;57.30;;;;;;4374458;28;655369;-74
2022/02/18 08:53:16;;;;;;;6.60;1.60;;;7.00;57.10;;;;;;4402368;28;656596;-73
2022/02/18 08:56:04;;;;;;;7.90;1.90;;;6.90;56.00;;;;;;4402048;28;656138;-75
2022/02/18 08:58:52;;;;;;;5.70;1.80;;;6.90;55.00;;;;;;4384969;28;656785;-75
2022/02/18 09:01:40;;;;;;;13.57;2.20;;;6.80;54.50;;;;;;4388396;28;655595;-75
2022/02/18 09:04:27;;;;;;;8.73;2.00;;;6.80;56.10;;;;;;4365816;28;657341;-75
2022/02/18 09:07:16;;;;;;;4.07;1.40;;;7.00;55.60;;;;;;4404256;28;655918;-75
2022/02/18 09:10:04;;;;;;;5.90;1.40;;;7.00;54.10;;;;;;4387906;28;655880;-75
2022/02/18 09:12:52;;;;;;;7.00;1.53;;;7.00;54.70;;;;;;4371315;28;655394;-74
2022/02/18 09:15:40;;;;;;;9.17;2.23;;;7.20;55.10;;;;;;4394673;28;655599;-75
2022/02/18 09:18:27;;;;;;;11.30;1.97;;;7.40;54.50;;;;;;4382127;28;656204;-75
2022/02/18 09:21:15;;;;;;;8.77;1.93;;;7.20;55.40;;;;;;4399021;28;656738;-75
2022/02/18 09:24:04;;;;;;;5.57;1.87;;;7.20;54.90;;;;;;4372304;28;656981;-75
2022/02/18 09:26:52;;;;;;;8.43;1.90;;;7.40;54.60;;;;;;4376936;28;656111;-75
2022/02/18 09:29:39;;;;;;;4.10;1.77;;;7.50;54.30;;;;;;4403353;28;655738;-74
2022/02/18 09:32:27;;;;;;;8.47;2.07;;;7.50;53.90;;;;;;4366610;28;656038;-74
2022/02/18 09:35:15;;;;;;;5.73;1.40;;;7.30;53.60;;;;;;4386611;28;655741;-75
2022/02/18 09:38:02;;;;;;;4.73;1.20;;;7.20;54.20;;;;;;4366755;28;656959;-75
2022/02/18 09:40:51;;;;;;;7.53;1.80;;;7.10;54.50;;;;;;4398697;28;656608;-75
2022/02/18 09:43:41;;;;;;;8.80;1.90;;;7.10;54.70;;;;;;4370601;28;656704;-75
2022/02/18 09:46:29;;;;;;;5.50;1.57;;;7.30;55.30;;;;;;4373222;28;656080;-74
2022/02/18 09:49:16;;;;;;;9.63;2.00;;;7.50;54.60;;;;;;4385665;28;655251;-75
2022/02/18 09:52:05;;;;;;;3.93;1.43;;;7.70;54.70;;;;;;4403743;28;657231;-74
2022/02/18 09:54:53;;;;;;;5.67;1.73;;;7.40;54.60;;;;;;4378976;28;656994;-74
2022/02/18 09:57:43;;;;;;;6.13;2.00;;;7.30;55.00;;;;;;4394760;28;655596;-72
2022/02/18 10:00:31;;;;;;;8.57;1.47;;;7.50;54.40;;;;;;4370257;28;655448;-73
2022/02/18 10:03:19;;;;;;;3.80;1.33;;;8.10;54.20;;;;;;4399283;28;655554;-75
2022/02/18 10:06:06;;;;;;;11.50;2.30;;;8.50;52.10;;;;;;4385089;28;655679;-73
2022/02/18 10:08:54;;;;;;;7.50;1.83;;;8.50;53.50;;;;;;4397530;28;656819;-75
2022/02/18 10:11:51;;;;;;;4.23;1.40;;;8.40;52.70;;;;;;4375018;28;655602;-75
2022/02/18 10:14:57;;;;;;;5.73;1.70;;;8.30;54.30;;;;;;4373050;28;655714;-74
2022/02/18 10:17:45;;;;;;;7.23;1.80;;;8.00;53.40;;;;;;4381167;28;655443;-75
2022/02/18 10:20:33;;;;;;;10.82;1.52;;;7.90;52.40;;;;;;4373495;28;656650;-74
2022/02/18 10:23:21;;;;;;;7.87;1.80;;;7.60;52.80;;;;;;4394936;28;657308;-73
2022/02/18 10:26:09;;;;;;;7.93;1.97;;;7.70;53.60;;;;;;4398533;28;656120;-74
2022/02/18 10:28:57;;;;;;;8.73;1.60;;;7.90;53.30;;;;;;4362873;28;656265;-75
2022/02/18 10:31:46;;;;;;;4.97;1.20;;;8.10;53.40;;;;;;4401444;28;655924;-74
2022/02/18 10:34:36;;;;;;;4.67;1.60;;;8.30;54.80;;;;;;4379263;28;655944;-75
2022/02/18 10:37:25;;;;;;;6.13;1.47;;;8.30;53.30;;;;;;4372929;28;657715;-75
2022/02/18 10:40:14;;;;;;;5.03;1.50;;;8.30;52.80;;;;;;4382101;28;656437;-73
2022/02/18 10:43:08;;;;;;;2.70;0.83;;;8.00;52.10;;;;;;4377160;28;655520;-75
2022/02/18 10:46:01;;;;;;;6.47;1.70;;;7.80;51.70;;;;;;4356331;28;655717;-73
2022/02/18 10:48:53;;;;;;;5.13;1.23;;;7.70;52.90;;;;;;4383747;28;656072;-74
2022/02/18 10:51:42;;;;;;;9.87;2.03;;;7.60;52.80;;;;;;4358068;28;655958;-74
2022/02/18 10:54:30;;;;;;;9.07;2.17;;;8.20;54.20;;;;;;4399028;28;655621;-74
2022/02/18 10:57:19;;;;;;;5.93;1.60;;;8.70;53.60;;;;;;4384115;28;656570;-74
2022/02/18 11:00:16;;;;;;;5.63;1.80;;;9.10;50.70;;;;;;4374839;28;656236;-74
2022/02/18 11:03:04;;;;;;;4.63;1.50;;;9.40;50.70;;;;;;4376098;28;655732;-75
2022/02/18 11:05:53;;;;;;;6.43;1.50;;;9.40;47.90;;;;;;4386110;28;655497;-75
2022/02/18 11:08:48;;;;;;;6.40;1.67;;;9.60;48.60;;;;;;4382835;28;655905;-74
2022/02/18 11:11:36;;;;;;;5.20;2.20;;;9.80;49.60;;;;;;4362694;28;655395;-73
2022/02/18 11:14:24;;;;;;;4.50;1.80;;;10.00;47.80;;;;;;4406432;28;656866;-74
2022/02/18 11:17:13;;;;;;;10.80;2.10;;;9.60;48.80;;;;;;4375810;28;656804;-74
2022/02/18 11:20:01;;;;;;;5.43;1.90;;;9.60;48.60;;;;;;4373609;28;656985;-73
2022/02/18 11:22:50;;;;;;;8.40;1.43;;;9.60;48.50;;;;;;4398916;28;655754;-75
2022/02/18 11:25:38;;;;;;;7.77;2.00;;;9.70;49.20;;;;;;4365421;28;656640;-74
2022/02/18 11:28:26;;;;;;;6.53;1.73;;;9.70;49.00;;;;;;4396194;28;655260;-74
2022/02/18 11:31:17;;;;;;;8.03;2.33;;;9.70;50.00;;;;;;4394468;28;656960;-74
2022/02/18 11:34:25;;;;;;;8.60;1.70;;;10.00;49.60;;;;;;4364028;28;655706;-75
2022/02/18 11:37:29;;;;;;;7.87;2.00;;;10.30;49.30;;;;;;4341195;28;657269;-75
2022/02/18 11:40:45;;;;;;;3.67;1.17;;;10.30;50.10;;;;;;4355904;28;656718;-75
2022/02/18 11:43:34;;;;;;;5.63;1.60;;;10.30;48.20;;;;;;4377615;28;657228;-74
2022/02/18 11:46:23;;;;;;;7.03;2.10;;;10.30;49.20;;;;;;4363742;28;656622;-74
2022/02/18 11:49:11;;;;;;;10.37;2.27;;;10.50;50.90;;;;;;4394957;28;656815;-75
2022/02/18 11:51:59;;;;;;;10.53;2.20;;;10.70;49.50;;;;;;4402683;28;658999;-74
2022/02/18 11:54:47;;;;;;;9.23;2.47;;;10.70;48.30;;;;;;4380742;28;657529;-74
2022/02/18 11:57:36;;;;;;;8.97;2.13;;;10.50;49.00;;;;;;4407181;28;656464;-75
2022/02/18 12:00:36;;;;;;;8.17;2.20;;;10.90;48.40;;;;;;4378312;28;657198;-74
2022/02/18 12:03:26;;;;;;;14.68;2.45;;;11.00;49.40;;;;;;4371710;28;657979;-75
2022/02/18 12:06:15;;;;;;;9.00;1.67;;;11.10;47.30;;;;;;4362180;28;658134;-74
2022/02/18 12:09:03;;;;;;;8.47;2.10;;;10.30;47.30;;;;;;4376933;28;657309;-74
2022/02/18 12:11:50;;;;;;;4.27;1.50;;;10.50;50.10;;;;;;4387804;28;656568;-75
2022/02/18 12:14:40;;;;;;;5.63;1.30;;;10.80;47.40;;;;;;4400471;28;657715;-74
2022/02/18 12:17:28;;;;;;;6.00;1.30;;;10.90;44.30;;;;;;4379687;28;657690;-75
2022/02/18 12:20:18;;;;;;;4.57;1.57;;;11.00;43.50;;;;;;4394098;28;657881;-73
2022/02/18 12:23:22;;;;;;;7.03;1.50;;;11.10;41.70;;;;;;4382671;28;656555;-74
2022/02/18 12:26:26;;;;;;;5.00;1.50;;;11.50;42.60;;;;;;4376856;28;656585;-75
2022/02/18 12:29:33;;;;;;;6.73;1.30;;;11.60;42.00;;;;;;4380385;28;656921;-74
2022/02/18 12:32:22;;;;;;;6.57;1.63;;;12.10;42.40;;;;;;4367961;28;656464;-75
2022/02/18 12:35:12;;;;;;;6.73;1.63;;;12.10;41.90;;;;;;4401190;28;656295;-73
2022/02/18 12:38:31;;;;;;;6.00;1.60;;;12.30;44.30;;;;;;4395997;28;656569;-74
2022/02/18 12:41:20;;;;;;;6.80;1.60;;;12.90;41.60;;;;;;4374587;28;656837;-74
2022/02/18 12:44:11;;;;;;;4.83;1.37;;;13.30;39.10;;;;;;4370054;28;656734;-75
2022/02/18 12:46:59;;;;;;;6.37;1.97;;;14.30;40.30;;;;;;4370362;28;657020;-74
2022/02/18 12:49:48;;;;;;;6.93;1.50;;;14.60;36.20;;;;;;4380559;28;657237;-75
2022/02/18 12:52:36;;;;;;;8.30;2.10;;;14.20;34.80;;;;;;4388742;28;656429;-74
2022/02/18 12:55:24;;;;;;;5.90;1.37;;;14.50;34.40;;;;;;4400679;28;657341;-75
2022/02/18 12:58:13;;;;;;;6.63;1.40;;;14.40;34.90;;;;;;4386360;28;657117;-75
2022/02/18 13:01:03;;;;;;;4.50;1.30;;;14.00;35.00;;;;;;4399160;28;656720;-74
2022/02/18 13:03:51;;;;;;;5.50;1.50;;;14.10;35.00;;;;;;4372008;28;656784;-75
2022/02/18 13:06:40;;;;;;;6.27;1.77;;;14.70;35.20;;;;;;4406922;28;656279;-74
2022/02/18 13:09:31;;;;;;;6.77;2.00;;;15.10;34.70;;;;;;4379949;28;657590;-74
2022/02/18 13:12:21;;;;;;;5.63;1.53;;;15.70;34.90;;;;;;4380553;28;657725;-75
2022/02/18 13:15:10;;;;;;;5.67;1.70;;;16.90;32.60;;;;;;4378562;28;657478;-75
2022/02/18 13:21:41;;;;;;;2.67;1.30;;;16.70;32.30;;;;;;4376891;28;656810;-74
2022/02/18 13:24:29;;;;;;;7.07;1.70;;;16.50;31.40;;;;;;4387779;28;657813;-74
2022/02/18 13:27:17;;;;;;;5.37;1.53;;;15.80;32.00;;;;;;4389594;28;656738;-74
2022/02/18 13:30:07;;;;;;;11.43;1.90;;;15.20;34.00;;;;;;4404161;28;656454;-75
2022/02/18 13:33:02;;;;;;;7.43;1.93;;;15.20;34.60;;;;;;4400513;28;658933;-74
2022/02/18 13:35:51;;;;;;;7.63;2.20;;;16.40;33.10;;;;;;4378881;28;656901;-75
2022/02/18 13:38:41;;;;;;;4.67;1.77;;;17.80;32.00;;;;;;4381229;28;657177;-74
2022/02/18 13:41:31;;;;;;;6.10;1.93;;;17.60;31.00;;;;;;4380650;28;657952;-74
2022/02/18 13:44:18;;;;;;;8.40;2.13;;;17.20;32.00;;;;;;4382874;28;657759;-74
2022/02/18 13:47:07;;;;;;;7.17;2.20;;;17.00;33.20;;;;;;4388354;28;657682;-74
2022/02/18 13:49:54;;;;;;;7.67;2.40;;;16.80;33.60;;;;;;4405206;28;656209;-74
2022/02/18 13:52:43;;;;;;;7.07;1.90;;;17.10;33.70;;;;;;4392817;28;656601;-74
2022/02/18 13:55:32;;;;;;;10.73;2.43;;;16.30;34.40;;;;;;4401548;28;656538;-74
2022/02/18 13:58:24;;;;;;;8.27;2.30;;;16.40;35.50;;;;;;4408947;28;657372;-74
2022/02/18 14:01:12;;;;;;;11.27;2.43;;;15.90;35.50;;;;;;4363766;28;656853;-75
2022/02/18 14:04:06;;;;;;;10.17;2.47;;;14.80;36.40;;;;;;4399952;28;657686;-74
2022/02/18 14:06:58;;;;;;;8.37;2.40;;;13.90;39.40;;;;;;4374158;28;657872;-74
2022/02/18 14:09:48;;;;;;;10.77;2.20;;;13.60;39.70;;;;;;4364742;28;656953;-75
2022/02/18 14:12:46;;;;;;;7.03;1.80;;;13.80;40.40;;;;;;4383274;28;657827;-75
2022/02/18 14:15:34;;;;;;;5.97;1.80;;;14.40;39.40;;;;;;4372908;28;656498;-74
2022/02/18 14:18:22;;;;;;;8.60;1.90;;;14.90;39.40;;;;;;4377318;28;656859;-75
2022/02/18 14:21:10;;;;;;;6.87;2.00;;;14.50;38.20;;;;;;4396017;28;656705;-74
2022/02/18 14:23:59;;;;;;;14.65;2.10;;;13.70;40.00;;;;;;4380080;28;657311;-74
2022/02/18 14:26:48;;;;;;;12.47;2.20;;;13.10;40.70;;;;;;4374554;28;657544;-74
2022/02/18 14:29:37;;;;;;;12.77;2.20;;;12.80;42.20;;;;;;4383756;28;658323;-74
2022/02/18 14:32:26;;;;;;;7.17;2.50;;;13.20;42.00;;;;;;4393979;28;657943;-74
2022/02/18 14:35:14;;;;;;;8.90;2.17;;;13.40;41.20;;;;;;4381676;28;657685;-74
2022/02/18 14:38:04;;;;;;;9.13;2.63;;;13.20;41.80;;;;;;4393067;28;656788;-75